createdAt,value
2019-02-15T00:01:37.533Z,38.35
2019-02-15T00:04:06.660Z,43.45
2019-02-15T00:06:35.427Z,37.83
2019-02-15T00:09:05.875Z,36.15
2019-02-15T00:11:34.767Z,36.85
2019-02-15T00:14:03.647Z,33.65
2019-02-15T00:16:33.165Z,36.28
2019-02-15T00:19:07.347Z,32.85
2019-02-15T00:21:42.834Z,35.78
2019-02-15T00:24:11.791Z,34.33
2019-02-15T00:26:41.434Z,50.95
2019-02-15T00:29:10.711Z,38.38
2019-02-15T00:31:39.831Z,31.17
2019-02-15T00:34:09.212Z,30.70
2019-02-15T00:36:38.324Z,31.85
2019-02-15T00:39:07.883Z,31.05
2019-02-15T00:41:37.643Z,28.62
2019-02-15T00:44:07.238Z,29.20
2019-02-15T00:46:43.696Z,27.48
2019-02-15T00:49:18.376Z,28.62
2019-02-15T00:51:52.428Z,29.37
2019-02-15T00:54:32.693Z,30.15
2019-02-15T00:57:06.704Z,34.78
2019-02-15T01:00:41.640Z,33.23
2019-02-15T01:03:31.523Z,37.08
2019-02-15T01:06:08.555Z,43.85
2019-02-15T01:08:59.527Z,42.90
2019-02-15T01:11:32.302Z,40.88
2019-02-15T01:14:01.168Z,41.23
2019-02-15T01:16:30.584Z,44.38
2019-02-15T01:18:59.583Z,38.95
2019-02-15T01:21:28.588Z,38.48
2019-02-15T01:23:57.475Z,37.78
2019-02-15T01:26:35.651Z,39.38
2019-02-15T01:29:12.020Z,41.08
2019-02-15T01:31:47.281Z,43.58
2019-02-15T01:34:24.336Z,42.17
2019-02-15T01:37:01.360Z,40.70
2019-02-15T01:39:51.300Z,38.10
2019-02-15T01:44:28.174Z,173.55
2019-02-15T01:47:04.042Z,41.58
2019-02-15T01:49:33.777Z,42.20
2019-02-15T01:52:02.947Z,37.53
2019-02-15T01:54:32.003Z,48.17
2019-02-15T01:57:01.594Z,45.08
2019-02-15T01:59:31.334Z,46.35
2019-02-15T02:02:00.421Z,52.40
2019-02-15T02:04:29.539Z,92.02
2019-02-15T02:06:58.411Z,53.20
2019-02-15T02:09:27.377Z,45.38
2019-02-15T02:11:56.614Z,44.10
2019-02-15T02:14:25.692Z,45.28
2019-02-15T02:16:55.062Z,44.63
2019-02-15T02:19:24.189Z,41.60
2019-02-15T02:21:53.183Z,38.35
2019-02-15T02:24:22.157Z,45.63
2019-02-15T02:26:52.404Z,44.15
2019-02-15T02:29:21.481Z,53.58
2019-02-15T02:31:50.291Z,40.92
2019-02-15T02:34:20.048Z,39.55
2019-02-15T02:36:51.984Z,46.40
2019-02-15T02:39:20.878Z,46.95
2019-02-15T02:41:50.392Z,46.45
2019-02-15T02:44:20.378Z,61.68
2019-02-15T02:46:49.361Z,47.58
2019-02-15T02:49:19.723Z,56.90
2019-02-15T02:51:49.176Z,40.35
2019-02-15T02:54:18.189Z,56.33
2019-02-15T02:56:48.171Z,52.95
2019-02-15T02:59:17.884Z,52.67
2019-02-15T03:01:46.923Z,43.83
2019-02-15T03:04:15.831Z,40.17
2019-02-15T03:06:45.182Z,35.90
2019-02-15T03:09:14.631Z,40.28
2019-02-15T03:11:43.525Z,49.03
2019-02-15T03:14:12.399Z,36.08
2019-02-15T03:16:41.976Z,35.05
2019-02-15T03:19:10.831Z,35.73
2019-02-15T03:21:40.273Z,31.75
2019-02-15T03:24:09.701Z,61.92
2019-02-15T03:26:39.190Z,145.38
2019-02-15T03:29:07.967Z,46.33
2019-02-15T03:31:36.890Z,28.87
2019-02-15T03:34:05.930Z,29.80
2019-02-15T03:36:40.016Z,29.75
2019-02-15T03:39:16.143Z,28.23
2019-02-15T03:41:45.204Z,36.00
2019-02-15T03:44:21.653Z,26.10
2019-02-15T03:46:43.145Z,26.90
2019-02-15T03:49:12.646Z,28.57
2019-02-15T03:51:41.620Z,28.17
2019-02-15T03:54:10.571Z,27.60
2019-02-15T03:56:39.546Z,30.00
2019-02-15T03:59:08.666Z,27.95
2019-02-15T04:01:37.866Z,28.00
2019-02-15T04:04:06.699Z,36.98
2019-02-15T04:06:36.199Z,32.25
2019-02-15T04:09:05.865Z,30.02
2019-02-15T04:11:34.707Z,30.30
2019-02-15T04:14:04.012Z,25.37
2019-02-15T04:16:33.632Z,26.52
2019-02-15T04:19:02.707Z,26.07
2019-02-15T04:21:32.296Z,26.20
2019-02-15T04:24:02.197Z,24.60
2019-02-15T04:26:30.995Z,25.90
2019-02-15T04:29:00.015Z,27.67
2019-02-15T04:31:28.845Z,23.22
2019-02-15T04:33:57.692Z,22.85
2019-02-15T04:36:26.496Z,23.95
2019-02-15T04:38:55.987Z,22.82
2019-02-15T04:41:24.971Z,20.70
2019-02-15T04:43:54.636Z,24.27
2019-02-15T04:46:23.686Z,44.93
2019-02-15T04:48:52.490Z,26.00
2019-02-15T04:51:21.981Z,23.38
2019-02-15T04:53:51.394Z,24.37
2019-02-15T04:56:20.481Z,25.62
2019-02-15T04:58:49.474Z,29.55
2019-02-15T05:01:18.509Z,27.05
2019-02-15T05:03:47.592Z,27.67
2019-02-15T05:06:16.446Z,28.10
2019-02-15T05:08:45.470Z,34.55
2019-02-15T05:11:14.993Z,32.95
2019-02-15T05:13:43.989Z,31.27
2019-02-15T05:16:12.952Z,32.00
2019-02-15T05:18:42.441Z,30.20
2019-02-15T05:21:12.857Z,28.60
2019-02-15T05:23:41.636Z,47.48
2019-02-15T05:26:10.827Z,26.62
2019-02-15T05:28:39.902Z,30.85
2019-02-15T05:31:09.579Z,47.75
2019-02-15T05:33:38.456Z,48.45
2019-02-15T05:36:08.140Z,35.43
2019-02-15T05:38:38.054Z,23.05
2019-02-15T05:41:06.869Z,38.58
2019-02-15T05:43:35.955Z,26.10
2019-02-15T05:46:05.992Z,30.88
2019-02-15T05:48:34.976Z,26.50
2019-02-15T05:51:05.167Z,29.98
2019-02-15T05:53:34.225Z,27.93
2019-02-15T05:56:03.674Z,28.32
2019-02-15T05:58:32.723Z,30.00
2019-02-15T06:01:02.394Z,29.05
2019-02-15T06:03:31.814Z,33.63
2019-02-15T06:06:00.780Z,32.00
2019-02-15T06:08:31.329Z,31.65
2019-02-15T06:11:06.459Z,28.65
2019-02-15T06:13:28.083Z,76.70
2019-02-15T06:15:57.395Z,69.20
2019-02-15T06:18:26.519Z,29.67
2019-02-15T06:20:55.629Z,27.90
2019-02-15T06:23:24.596Z,47.40
2019-02-15T06:25:53.606Z,41.45
2019-02-15T06:28:22.682Z,229.18
2019-02-15T06:30:51.637Z,67.65
2019-02-15T06:33:20.658Z,42.15
2019-02-15T06:35:49.944Z,37.30
2019-02-15T06:38:18.970Z,39.98
2019-02-15T06:40:48.586Z,38.63
2019-02-15T06:43:18.574Z,41.45
2019-02-15T06:45:47.604Z,43.23
2019-02-15T06:48:16.612Z,41.40
2019-02-15T06:50:45.655Z,39.65
2019-02-15T06:53:14.762Z,39.53
2019-02-15T06:55:43.791Z,40.70
2019-02-15T06:58:13.929Z,41.30
2019-02-15T07:00:47.105Z,40.55
2019-02-15T07:03:23.716Z,41.68
2019-02-15T07:05:52.656Z,36.65
2019-02-15T07:08:22.435Z,37.28
2019-02-15T07:10:51.588Z,35.15
2019-02-15T07:13:21.288Z,34.55
2019-02-15T07:15:50.268Z,29.07
2019-02-15T07:18:19.088Z,22.27
2019-02-15T07:20:49.749Z,28.15
2019-02-15T07:23:18.853Z,25.80
2019-02-15T07:25:47.864Z,20.05
2019-02-15T07:28:16.861Z,14.07
2019-02-15T07:30:46.176Z,15.83
2019-02-15T07:33:15.189Z,21.05
2019-02-15T07:35:44.848Z,17.77
2019-02-15T07:38:14.370Z,14.83
2019-02-15T07:40:43.343Z,18.90
2019-02-15T07:43:12.992Z,19.25
2019-02-15T07:45:43.053Z,17.87
2019-02-15T07:48:11.267Z,15.32
2019-02-15T07:50:40.278Z,15.72
2019-02-15T07:53:09.520Z,15.35
2019-02-15T07:55:38.532Z,15.90
2019-02-15T07:58:07.549Z,11.70
2019-02-15T08:00:37.190Z,11.50
2019-02-15T08:03:06.263Z,9.05
2019-02-15T08:05:35.877Z,9.35
2019-02-15T08:08:05.258Z,9.83
2019-02-15T08:10:34.266Z,14.90
2019-02-15T08:13:03.253Z,13.28
2019-02-15T08:15:36.235Z,13.30
2019-02-15T08:18:02.357Z,10.75
2019-02-15T08:20:32.132Z,13.35
2019-02-15T08:23:00.990Z,15.23
2019-02-15T08:25:30.283Z,19.65
2019-02-15T08:28:00.258Z,15.32
2019-02-15T08:30:30.375Z,14.55
2019-02-15T08:32:59.443Z,14.70
2019-02-15T08:35:28.511Z,15.03
2019-02-15T08:37:58.916Z,12.30
2019-02-15T08:40:27.593Z,7.78
2019-02-15T08:42:58.272Z,5.00
2019-02-15T08:45:27.415Z,5.53
2019-02-15T08:47:56.954Z,2.45
2019-02-15T08:50:26.137Z,3.47
2019-02-15T08:52:56.169Z,3.02
2019-02-15T08:55:25.461Z,2.70
2019-02-15T08:57:55.199Z,3.25
2019-02-15T09:00:24.348Z,4.28
2019-02-15T09:02:53.391Z,5.62
2019-02-15T09:05:22.587Z,4.60
2019-02-15T09:07:52.312Z,4.58
2019-02-15T09:10:21.384Z,4.12
2019-02-15T09:12:52.321Z,4.30
2019-02-15T09:15:21.967Z,2.90
2019-02-15T09:17:50.938Z,3.37
2019-02-15T09:20:20.265Z,2.80
2019-02-15T09:22:49.435Z,3.37
2019-02-15T09:25:18.529Z,3.65
2019-02-15T09:27:54.515Z,4.58
2019-02-15T09:30:23.599Z,5.40
2019-02-15T09:32:53.024Z,6.00
2019-02-15T09:35:22.016Z,7.22
2019-02-15T09:37:50.852Z,5.15
2019-02-15T09:40:20.246Z,7.45
2019-02-15T09:42:49.792Z,8.35
2019-02-15T09:45:18.652Z,8.38
2019-02-15T09:47:48.103Z,7.97
2019-02-15T09:50:17.896Z,6.35
2019-02-15T09:52:48.291Z,5.97
2019-02-15T09:55:17.079Z,7.05
2019-02-15T09:57:45.735Z,4.60
2019-02-15T10:00:15.730Z,3.50
2019-02-15T10:02:45.044Z,4.78
2019-02-15T10:05:13.951Z,4.65
2019-02-15T10:07:43.590Z,4.83
2019-02-15T10:10:12.583Z,6.10
2019-02-15T10:12:42.524Z,4.00
2019-02-15T10:15:11.643Z,4.00
2019-02-15T10:17:40.600Z,5.15
2019-02-15T10:20:10.272Z,4.58
2019-02-15T10:22:39.291Z,4.60
2019-02-15T10:25:09.156Z,5.08
2019-02-15T10:27:38.428Z,3.58
2019-02-15T10:30:08.185Z,3.33
2019-02-15T10:32:37.736Z,3.98
2019-02-15T10:35:07.658Z,5.97
2019-02-15T10:37:36.757Z,5.70
2019-02-15T10:40:06.453Z,10.65
2019-02-15T10:42:35.868Z,8.40
2019-02-15T10:45:05.227Z,15.48
2019-02-15T10:47:34.277Z,10.10
2019-02-15T10:50:05.097Z,8.90
2019-02-15T10:52:32.801Z,8.98
2019-02-15T10:55:02.245Z,8.35
2019-02-15T10:57:31.683Z,10.23
2019-02-15T11:00:00.859Z,11.57
2019-02-15T11:02:29.917Z,15.45
2019-02-15T11:04:58.762Z,9.98
2019-02-15T11:07:27.540Z,11.78
2019-02-15T11:09:57.104Z,15.43
2019-02-15T11:12:26.097Z,20.23
2019-02-15T11:14:55.174Z,15.30
2019-02-15T11:17:24.195Z,10.30
2019-02-15T11:19:53.612Z,11.28
2019-02-15T11:22:23.503Z,10.03
2019-02-15T11:24:53.579Z,11.68
2019-02-15T11:27:23.168Z,11.95
2019-02-15T11:29:51.892Z,12.30
2019-02-15T11:32:21.479Z,13.75
2019-02-15T11:34:50.811Z,16.93
2019-02-15T11:37:19.847Z,9.70
2019-02-15T11:39:49.110Z,16.82
2019-02-15T11:42:18.792Z,22.13
2019-02-15T11:44:47.433Z,16.20
2019-02-15T11:47:16.216Z,13.05
2019-02-15T11:49:45.428Z,13.95
2019-02-15T11:52:15.121Z,13.15
2019-02-15T11:54:44.849Z,10.72
2019-02-15T11:57:13.895Z,13.08
2019-02-15T11:59:43.920Z,12.18
2019-02-15T12:02:12.969Z,14.23
2019-02-15T12:04:41.787Z,12.73
2019-02-15T12:07:11.165Z,13.18
2019-02-15T12:09:40.284Z,16.77
2019-02-15T12:12:10.971Z,16.15
2019-02-15T12:14:38.956Z,16.60
2019-02-15T12:17:08.149Z,13.80
2019-02-15T12:19:38.574Z,17.37
2019-02-15T12:22:08.296Z,19.92
2019-02-15T12:24:38.422Z,15.85
2019-02-15T12:27:08.092Z,14.20
2019-02-15T12:29:37.015Z,11.15
2019-02-15T12:32:07.017Z,12.75
2019-02-15T12:34:36.943Z,12.45
2019-02-15T12:37:06.256Z,10.28
2019-02-15T12:39:35.788Z,12.82
2019-02-15T12:42:04.677Z,12.23
2019-02-15T12:44:33.519Z,13.32
2019-02-15T12:47:02.470Z,19.17
2019-02-15T12:49:31.523Z,14.70
2019-02-15T12:52:00.536Z,13.15
2019-02-15T12:54:29.757Z,12.35
2019-02-15T12:56:58.754Z,15.10
2019-02-15T12:59:27.851Z,8.90
2019-02-15T13:01:57.275Z,12.40
2019-02-15T13:04:26.106Z,8.00
2019-02-15T13:06:55.093Z,7.90
2019-02-15T13:09:24.346Z,10.00
2019-02-15T13:11:53.086Z,15.05
2019-02-15T13:14:21.949Z,15.58
2019-02-15T13:16:50.892Z,13.00
2019-02-15T13:19:19.865Z,19.05
2019-02-15T13:21:48.747Z,18.20
2019-02-15T13:24:17.687Z,15.40
2019-02-15T13:26:46.788Z,15.63
2019-02-15T13:29:16.284Z,12.23
2019-02-15T13:31:45.371Z,14.50
2019-02-15T13:34:14.433Z,13.93
2019-02-15T13:36:43.215Z,13.15
2019-02-15T13:39:12.580Z,7.97
2019-02-15T13:41:41.632Z,8.00
2019-02-15T13:44:11.174Z,6.87
2019-02-15T13:46:40.451Z,9.78
2019-02-15T13:49:09.418Z,13.15
2019-02-15T13:51:38.576Z,16.52
2019-02-15T13:54:07.932Z,15.30
2019-02-15T13:56:36.818Z,14.50
2019-02-15T13:59:05.814Z,16.93
2019-02-15T14:01:34.833Z,17.55
2019-02-15T14:04:04.308Z,15.88
2019-02-15T14:06:33.132Z,18.00
2019-02-15T14:09:02.239Z,24.20
2019-02-15T14:11:31.913Z,20.35
2019-02-15T14:14:01.817Z,13.85
2019-02-15T14:16:31.018Z,12.85
2019-02-15T14:18:59.915Z,13.00
2019-02-15T14:21:28.812Z,12.90
2019-02-15T14:23:58.009Z,10.95
2019-02-15T14:26:27.104Z,7.72
2019-02-15T14:28:56.251Z,6.40
2019-02-15T14:31:26.082Z,8.45
2019-02-15T14:33:55.108Z,10.63
2019-02-15T14:36:24.112Z,23.40
2019-02-15T14:38:53.253Z,14.20
2019-02-15T14:41:22.286Z,12.93
2019-02-15T14:43:51.084Z,21.12
2019-02-15T14:46:21.007Z,25.30
2019-02-15T14:48:50.097Z,18.95
2019-02-15T14:51:20.897Z,16.42
2019-02-15T14:53:50.174Z,22.77
2019-02-15T14:56:19.331Z,27.00
2019-02-15T14:58:48.437Z,28.62
2019-02-15T15:01:17.302Z,30.68
2019-02-15T15:03:46.663Z,20.52
2019-02-15T15:06:15.929Z,20.15
2019-02-15T15:08:44.936Z,18.32
2019-02-15T15:11:14.572Z,17.45
2019-02-15T15:13:43.415Z,87.85
2019-02-15T15:16:13.025Z,23.18
2019-02-15T15:18:42.862Z,31.35
2019-02-15T15:21:12.637Z,30.10
2019-02-15T15:23:41.787Z,20.37
2019-02-15T15:26:12.262Z,14.18
2019-02-15T15:28:40.482Z,15.98
2019-02-15T15:31:11.343Z,44.18
2019-02-15T15:33:38.851Z,360.70
2019-02-15T15:36:09.193Z,797.33
2019-02-15T15:38:38.425Z,622.17
2019-02-15T15:41:07.587Z,1999.90
2019-02-15T15:43:36.462Z,425.15
2019-02-15T15:46:05.664Z,1999.90
2019-02-15T15:48:34.661Z,516.73
2019-02-15T15:51:03.779Z,558.12
2019-02-15T15:53:32.752Z,1305.38
2019-02-15T15:56:01.933Z,1999.90
2019-02-15T15:58:30.994Z,1999.90
2019-02-15T16:01:00.628Z,1999.90
2019-02-15T16:03:29.738Z,1999.90
2019-02-15T16:06:00.321Z,1999.90
2019-02-15T16:08:28.436Z,455.65
2019-02-15T16:10:57.615Z,409.70
2019-02-15T16:13:27.496Z,1034.80
2019-02-15T16:15:56.970Z,1895.53
2019-02-15T16:18:32.246Z,1970.30
2019-02-15T16:20:55.133Z,505.93
2019-02-15T16:23:24.564Z,240.85
2019-02-15T16:25:53.835Z,131.37
2019-02-15T16:28:22.920Z,929.37
2019-02-15T16:30:51.855Z,268.45
2019-02-15T16:33:21.941Z,1205.98
2019-02-15T16:35:51.032Z,443.87
2019-02-15T16:38:19.977Z,1097.30
2019-02-15T16:40:49.047Z,515.35
2019-02-15T16:43:18.181Z,1572.95
2019-02-15T16:45:48.574Z,1039.75
2019-02-15T16:48:17.749Z,1999.90
2019-02-15T16:50:46.767Z,1500.70
2019-02-15T16:53:15.809Z,1736.15
2019-02-15T16:55:44.911Z,1577.03
2019-02-15T16:58:13.981Z,1657.65
2019-02-15T17:00:42.816Z,1999.90
2019-02-15T17:03:11.940Z,134.22
2019-02-15T17:05:40.708Z,38.55
2019-02-15T17:08:09.757Z,34.25
2019-02-15T17:10:38.855Z,31.95
2019-02-15T17:13:07.545Z,30.20
2019-02-15T17:15:37.246Z,37.08
2019-02-15T17:18:06.763Z,38.73
2019-02-15T17:20:35.838Z,38.48
2019-02-15T17:23:04.805Z,38.50
2019-02-15T17:25:34.106Z,44.90
2019-02-15T17:28:03.489Z,45.58
2019-02-15T17:30:34.203Z,51.58
2019-02-15T17:33:03.803Z,174.27
2019-02-15T17:35:32.802Z,434.52
2019-02-15T17:38:02.115Z,57.38
2019-02-15T17:40:31.268Z,47.67
2019-02-15T17:43:01.774Z,40.45
2019-02-15T17:45:31.007Z,546.50
2019-02-15T17:47:59.983Z,117.37
2019-02-15T17:50:29.343Z,106.45
2019-02-15T17:52:58.261Z,33.33
2019-02-15T17:55:27.377Z,19.65
2019-02-15T17:57:56.469Z,22.22
2019-02-15T18:00:26.306Z,23.10
2019-02-15T18:02:55.483Z,23.60
2019-02-15T18:05:24.688Z,18.40
2019-02-15T18:07:54.119Z,22.55
2019-02-15T18:10:23.286Z,28.25
2019-02-15T18:12:52.483Z,33.83
2019-02-15T18:15:21.781Z,38.83
2019-02-15T18:17:51.039Z,96.22
2019-02-15T18:20:21.443Z,64.75
2019-02-15T18:22:50.317Z,237.72
2019-02-15T18:25:19.699Z,49.83
2019-02-15T18:27:48.560Z,41.80
2019-02-15T18:30:18.164Z,45.98
2019-02-15T18:32:47.731Z,47.00
2019-02-15T18:35:16.811Z,51.20
2019-02-15T18:37:46.328Z,50.43
2019-02-15T18:40:15.169Z,48.60
2019-02-15T18:42:44.497Z,47.60
2019-02-15T18:45:13.728Z,42.13
2019-02-15T18:47:42.699Z,37.73
2019-02-15T18:50:12.421Z,29.42
2019-02-15T18:52:41.507Z,25.57
2019-02-15T18:55:11.222Z,33.73
2019-02-15T18:57:40.717Z,26.80
2019-02-15T19:00:11.332Z,29.05
2019-02-15T19:02:41.029Z,25.20
2019-02-15T19:05:11.369Z,31.68
2019-02-15T19:07:40.566Z,87.45
2019-02-15T19:10:11.558Z,43.73
2019-02-15T19:12:40.569Z,46.65
2019-02-15T19:15:10.531Z,459.85
2019-02-15T19:17:39.576Z,442.05
2019-02-15T19:20:09.768Z,74.32
2019-02-15T19:22:39.079Z,78.67
2019-02-15T19:25:09.687Z,48.55
2019-02-15T19:27:39.732Z,50.75
2019-02-15T19:30:11.088Z,47.53
2019-02-15T19:32:40.134Z,45.33
2019-02-15T19:35:09.314Z,48.68
2019-02-15T19:37:39.458Z,46.28
2019-02-15T19:40:10.477Z,52.62
2019-02-15T19:42:40.575Z,46.83
2019-02-15T19:45:10.486Z,45.70
2019-02-15T19:47:39.524Z,40.08
2019-02-15T19:50:10.748Z,40.35
2019-02-15T19:52:40.406Z,42.35
2019-02-15T19:55:09.944Z,41.10
2019-02-15T19:57:39.813Z,35.98
2019-02-15T20:00:12.853Z,45.58
2019-02-15T20:02:42.847Z,45.52
2019-02-15T20:05:11.928Z,254.38
2019-02-15T20:07:40.994Z,77.47
2019-02-15T20:10:12.429Z,33.10
2019-02-15T20:12:41.826Z,33.25
2019-02-15T20:15:12.062Z,24.15
2019-02-15T20:17:41.075Z,25.17
2019-02-15T20:20:11.660Z,24.52
2019-02-15T20:22:40.731Z,21.73
2019-02-15T20:25:10.558Z,19.55
2019-02-15T20:27:39.583Z,22.32
2019-02-15T20:30:11.131Z,21.65
2019-02-15T20:32:40.065Z,24.32
2019-02-15T20:35:10.410Z,26.52
2019-02-15T20:37:39.380Z,32.58
2019-02-15T20:40:09.811Z,408.65
2019-02-15T20:42:39.007Z,84.07
2019-02-15T20:45:11.671Z,57.17
2019-02-15T20:47:40.567Z,54.38
2019-02-15T20:50:10.122Z,35.40
2019-02-15T20:52:39.200Z,27.93
2019-02-15T20:55:09.684Z,21.30
2019-02-15T20:57:38.965Z,21.48
2019-02-15T21:00:10.142Z,20.77
2019-02-15T21:02:39.019Z,22.65
2019-02-15T21:05:09.010Z,23.55
2019-02-15T21:07:37.999Z,20.10
2019-02-15T21:10:08.263Z,21.77
2019-02-15T21:12:39.551Z,20.43
2019-02-15T21:15:07.035Z,20.77
2019-02-15T21:17:36.015Z,24.72
2019-02-15T21:20:07.981Z,20.52
2019-02-15T21:22:34.669Z,19.40
2019-02-15T21:25:04.363Z,16.73
2019-02-15T21:27:33.783Z,18.23
2019-02-15T21:30:02.743Z,15.35
2019-02-15T21:32:32.490Z,22.80
2019-02-15T21:35:01.380Z,20.97
2019-02-15T21:37:30.508Z,20.48
2019-02-15T21:39:59.983Z,24.57
2019-02-15T21:42:29.091Z,30.30
2019-02-15T21:44:58.701Z,29.75
2019-02-15T21:47:27.822Z,33.80
2019-02-15T21:49:56.982Z,33.15
2019-02-15T21:52:26.403Z,29.50
2019-02-15T21:54:55.439Z,27.45
2019-02-15T21:57:24.507Z,24.15
2019-02-15T21:59:53.467Z,33.73
2019-02-15T22:02:23.188Z,27.62
2019-02-15T22:04:52.043Z,29.70
2019-02-15T22:07:21.556Z,27.93
2019-02-15T22:09:50.612Z,37.15
2019-02-15T22:12:19.669Z,28.60
2019-02-15T22:14:48.984Z,31.42
2019-02-15T22:17:18.369Z,31.85
2019-02-15T22:19:47.284Z,29.05
2019-02-15T22:22:16.579Z,29.15
2019-02-15T22:24:45.700Z,29.45
2019-02-15T22:27:15.150Z,30.90
2019-02-15T22:29:44.191Z,31.90
2019-02-15T22:32:13.220Z,34.00
2019-02-15T22:34:42.164Z,27.02
2019-02-15T22:37:11.256Z,22.50
2019-02-15T22:39:40.394Z,26.37
2019-02-15T22:42:09.947Z,40.05
2019-02-15T22:44:39.144Z,28.32
2019-02-15T22:47:08.396Z,20.48
2019-02-15T22:49:43.305Z,20.35
2019-02-15T22:52:07.382Z,17.70
2019-02-15T22:54:36.515Z,17.50
2019-02-15T22:57:05.343Z,19.73
2019-02-15T22:59:35.489Z,17.57
2019-02-15T23:02:04.522Z,16.73
2019-02-15T23:04:33.138Z,17.17
2019-02-15T23:07:02.289Z,15.50
2019-02-15T23:09:31.276Z,17.37
2019-02-15T23:12:00.503Z,17.35
2019-02-15T23:14:29.291Z,13.80
2019-02-15T23:16:58.112Z,15.05
2019-02-15T23:19:27.107Z,17.05
2019-02-15T23:21:55.858Z,20.08
2019-02-15T23:24:25.281Z,15.18
2019-02-15T23:26:54.292Z,15.43
2019-02-15T23:29:23.456Z,16.35
2019-02-15T23:31:52.385Z,16.10
2019-02-15T23:34:21.179Z,17.82
2019-02-15T23:36:50.275Z,14.43
2019-02-15T23:39:19.858Z,14.98
2019-02-15T23:41:48.748Z,15.05
2019-02-15T23:44:17.654Z,15.83
2019-02-15T23:46:47.504Z,14.68
2019-02-15T23:49:17.387Z,17.57
2019-02-15T23:51:46.295Z,16.85
2019-02-15T23:54:15.305Z,15.95
2019-02-15T23:56:44.483Z,17.15
2019-02-15T23:59:14.305Z,14.78
